This is the latest recevied weather packets stored in our database for station/object HS5AL. If no packets are shown the sender has not sent any weather packets the latest 10 day(s).
| Time | Temp. | Humidity | Pressure | Rain* | Wind** | Luminosity | Snow |
|---|---|---|---|---|---|---|---|
| 1777791289 | 36.11° C | 36% | 972 hPa | - | - | 0 W/m² | - |
| 1777790667 | 35.56° C | 37% | 973 hPa | - | - | 0 W/m² | - |
| 1777790045 | 35.56° C | 38% | 973 hPa | - | - | 0 W/m² | - |
| 1777789423 | 35.56° C | 37% | 973 hPa | - | - | 0 W/m² | - |
| 1777788801 | 35.56° C | 38% | 973 hPa | - | - | 0 W/m² | - |
| 1777788179 | 35° C | 39% | 974 hPa | - | - | 0 W/m² | - |
| 1777787557 | 35° C | 39% | 974 hPa | - | - | 0 W/m² | - |
| 1777786935 | 34.44° C | 40% | 974 hPa | - | - | 0 W/m² | - |
| 1777786313 | 36.11° C | 37% | 974 hPa | - | - | 0 W/m² | - |
| 1777785691 | 36.11° C | 37% | 975 hPa | - | - | 0 W/m² | - |
| 1777785069 | 36.11° C | 37% | 975 hPa | - | - | 0 W/m² | - |
| 1777784447 | 35.56° C | 38% | 975 hPa | - | - | 0 W/m² | - |
| 1777783825 | 35.56° C | 38% | 975 hPa | - | - | 0 W/m² | - |
| 1777783203 | 36.11° C | 37% | 975 hPa | - | - | 0 W/m² | - |
| 1777782581 | 35.56° C | 37% | 975 hPa | - | - | 0 W/m² | - |
| 1777781959 | 35.56° C | 38% | 976 hPa | - | - | 0 W/m² | - |
| 1777781337 | 35° C | 38% | 976 hPa | - | - | 0 W/m² | - |
| 1777780715 | 35.56° C | 37% | 976 hPa | - | - | 0 W/m² | - |
| 1777780093 | 34.44° C | 39% | 976 hPa | - | - | 0 W/m² | - |
| 1777779471 | 35° C | 37% | 976 hPa | - | - | 0 W/m² | - |
| 1777778849 | 35° C | 37% | 976 hPa | - | - | 0 W/m² | - |
| 1777778227 | 35° C | 38% | 976 hPa | - | - | 0 W/m² | - |
| 1777777605 | 35° C | 38% | 976 hPa | - | - | 0 W/m² | - |
| 1777776983 | 35° C | 38% | 976 hPa | - | - | 0 W/m² | - |
| 1777776361 | 35° C | 38% | 976 hPa | - | - | 0 W/m² | - |
* Rain since midnight (hover to see other rain measurements)
** Current wind speed in m/s (hover to see current wind gust speed)